Souryoumaru — JD2876 — position and weather

sailwx.info

Track history (hours):
 
Tides and Currents Weather Stations Pressure Air Temp Water Temp Dewpoint Dewpoint Depression Visibility Wind Speed Wind Dir Waves Ship Positions

Souryoumaru

Last reported at 2017-Nov-08 09:49 UTC. Time now 2017-Nov-18 04:43 UTC.
Position N 34°37' E 134°55'.
Warning: this ship's position is 9 days out of date.

Length 65 m; draft 4.2 m.

Type: Ship (hazmat cat C). MMSI: 431000864.

Date/timePositionNaut miles runAvg speedWind from/ knotsBaromVisibWave heightAir tempDewpointWater temp
2017-Nov-08 09:49N 34°37' E 134°55'310.0
2017-Nov-08 09:28N 34°38' E 134°59'4 8.5
2017-Nov-08 09:00N 34°36' E 135°04'510.6
2017-Nov-08 08:30N 34°37' E 135°10'611.1
2017-Nov-08 08:00N 34°38' E 135°17'611.0
2017-Nov-08 07:30N 34°38' E 135°24'2 4.2
2017-Nov-08 07:00N 34°40' E 135°25'0 0.0
2017-Nov-08 06:23N 34°40' E 135°25'0 0.0
2017-Nov-08 05:52N 34°40' E 135°25'0 0.0
2017-Nov-08 05:29N 34°40' E 135°25'1 2.0
2017-Nov-08 05:00N 34°39' E 135°25'710.9
2017-Nov-08 04:20N 34°34' E 135°19'611.6
2017-Nov-08 03:49N 34°29' E 135°14'412.0
2017-Nov-08 03:29N 34°26' E 135°11'611.7
2017-Nov-08 02:59N 34°21' E 135°07'611.5
2017-Nov-08 02:26N 34°16' E 135°03'512.2
2017-Nov-08 02:00N 34°11' E 135°03'611.6
2017-Nov-08 01:29N 34°05' E 135°02'  
2017-Nov-04 03:07N 34°22' E 135°06'312.2
2017-Nov-04 02:55N 34°24' E 135°08'512.0
2017-Nov-04 02:30N 34°28' E 135°11'611.3
2017-Nov-04 02:00N 34°32' E 135°16'510.9
2017-Nov-04 01:30N 34°35' E 135°22'5 9.0
2017-Nov-04 01:00N 34°35' E 135°27'3 5.3
2017-Nov-04 00:30N 34°36' E 135°24'4 7.7
2017-Nov-04 00:00N 34°40' E 135°25'0 0.0
2017-Nov-03 23:30N 34°40' E 135°25'0 0.0
2017-Nov-03 23:00N 34°40' E 135°25'0 0.0
2017-Nov-03 22:26N 34°40' E 135°25'0 0.9
2017-Nov-03 22:00N 34°40' E 135°25'3 6.2
2017-Nov-03 21:30N 34°39' E 135°21'0 0.0
2017-Nov-03 21:00N 34°39' E 135°21'0 0.0
2017-Nov-03 20:30N 34°39' E 135°21'0 0.0
2017-Nov-03 20:00N 34°39' E 135°21'0 0.0
2017-Nov-03 19:30N 34°39' E 135°21'0 0.0
2017-Nov-03 19:00N 34°39' E 135°21'0 0.1
2017-Nov-03 18:30N 34°39' E 135°21'0 0.0
2017-Nov-03 18:00N 34°39' E 135°21'0 0.0
2017-Nov-03 17:25N 34°39' E 135°21'0 0.0
2017-Nov-03 16:56N 34°39' E 135°21'0 0.0
2017-Nov-03 16:30N 34°39' E 135°21'0 0.0
2017-Nov-03 16:00N 34°39' E 135°21'0 0.0
2017-Nov-03 15:30N 34°39' E 135°21'0 0.0
2017-Nov-03 15:01N 34°39' E 135°21'0 0.0
2017-Nov-03 14:30N 34°39' E 135°21'0 0.0
2017-Nov-03 14:00N 34°39' E 135°21'0 0.0
2017-Nov-03 13:30N 34°39' E 135°21'0 0.0
2017-Nov-03 13:00N 34°39' E 135°21'0 0.0
2017-Nov-03 12:30N 34°39' E 135°21'0 0.0
2017-Nov-03 12:00N 34°39' E 135°21'0 0.1
2017-Nov-03 11:29N 34°39' E 135°21'0 0.0
2017-Nov-03 11:00N 34°39' E 135°21'0 0.0
2017-Nov-03 10:30N 34°39' E 135°21'0 0.0
2017-Nov-03 10:00N 34°39' E 135°21'0 0.0
2017-Nov-03 09:30N 34°39' E 135°21'0 0.0
2017-Nov-03 09:00N 34°39' E 135°21'0 0.0
2017-Nov-03 08:31N 34°39' E 135°21'0 0.0
2017-Nov-03 08:00N 34°39' E 135°21'0 0.0
2017-Nov-03 07:29N 34°39' E 135°21'0 0.0
2017-Nov-03 07:01N 34°39' E 135°21'0 0.0
2017-Nov-03 06:30N 34°39' E 135°21'0 0.1
2017-Nov-03 06:00N 34°39' E 135°21'0 0.0
2017-Nov-03 05:30N 34°39' E 135°21'0 0.0
2017-Nov-03 04:57N 34°39' E 135°21'0 0.0
2017-Nov-03 04:30N 34°39' E 135°21'0 0.0
2017-Nov-03 03:59N 34°39' E 135°21'0 0.0
2017-Nov-03 03:30N 34°39' E 135°21'0 0.0
2017-Nov-03 03:01N 34°39' E 135°21'0 0.0
2017-Nov-03 02:26N 34°39' E 135°21'0 0.0
2017-Nov-03 01:55N 34°39' E 135°21'1 2.8
2017-Nov-03 01:30N 34°38' E 135°21'611.6
2017-Nov-03 00:59N 34°33' E 135°17'611.5
2017-Nov-03 00:29N 34°28' E 135°13'611.4
2017-Nov-02 23:57N 34°24' E 135°08'612.0
2017-Nov-02 23:28N 34°19' E 135°04'511.7
2017-Nov-02 23:00N 34°13' E 135°03'611.8
2017-Nov-02 22:30N 34°08' E 135°03'  
Track history (hours):
 
Tides and Currents Weather Stations Pressure Air Temp Water Temp Dewpoint Dewpoint Depression Visibility Wind Speed Wind Dir Waves Ship Positions

Souryoumaru

Last reported at 2017-Nov-08 09:49 UTC. Time now 2017-Nov-18 04:43 UTC.
Position N 34°37' E 134°55'.
Warning: this ship's position is 9 days out of date.

Length 65 m; draft 4.2 m.

Type: Ship (hazmat cat C). MMSI: 431000864.

Date/timePositionNaut miles runAvg speedWind from/ knotsBaromVisibWave heightAir tempDewpointWater temp
2017-Nov-08 09:49N 34°37' E 134°55'310.0
2017-Nov-08 09:28N 34°38' E 134°59'4 8.5
2017-Nov-08 09:00N 34°36' E 135°04'510.6
2017-Nov-08 08:30N 34°37' E 135°10'611.1
2017-Nov-08 08:00N 34°38' E 135°17'611.0
2017-Nov-08 07:30N 34°38' E 135°24'2 4.2
2017-Nov-08 07:00N 34°40' E 135°25'0 0.0
2017-Nov-08 06:23N 34°40' E 135°25'0 0.0
2017-Nov-08 05:52N 34°40' E 135°25'0 0.0
2017-Nov-08 05:29N 34°40' E 135°25'1 2.0
2017-Nov-08 05:00N 34°39' E 135°25'710.9
2017-Nov-08 04:20N 34°34' E 135°19'611.6
2017-Nov-08 03:49N 34°29' E 135°14'412.0
2017-Nov-08 03:29N 34°26' E 135°11'611.7
2017-Nov-08 02:59N 34°21' E 135°07'611.5
2017-Nov-08 02:26N 34°16' E 135°03'512.2
2017-Nov-08 02:00N 34°11' E 135°03'611.6
2017-Nov-08 01:29N 34°05' E 135°02'  
2017-Nov-04 03:07N 34°22' E 135°06'312.2
2017-Nov-04 02:55N 34°24' E 135°08'512.0
2017-Nov-04 02:30N 34°28' E 135°11'611.3
2017-Nov-04 02:00N 34°32' E 135°16'510.9
2017-Nov-04 01:30N 34°35' E 135°22'5 9.0
2017-Nov-04 01:00N 34°35' E 135°27'3 5.3
2017-Nov-04 00:30N 34°36' E 135°24'4 7.7
2017-Nov-04 00:00N 34°40' E 135°25'0 0.0
2017-Nov-03 23:30N 34°40' E 135°25'0 0.0
2017-Nov-03 23:00N 34°40' E 135°25'0 0.0
2017-Nov-03 22:26N 34°40' E 135°25'0 0.9
2017-Nov-03 22:00N 34°40' E 135°25'3 6.2
2017-Nov-03 21:30N 34°39' E 135°21'0 0.0
2017-Nov-03 21:00N 34°39' E 135°21'0 0.0
2017-Nov-03 20:30N 34°39' E 135°21'0 0.0
2017-Nov-03 20:00N 34°39' E 135°21'0 0.0
2017-Nov-03 19:30N 34°39' E 135°21'0 0.0
2017-Nov-03 19:00N 34°39' E 135°21'0 0.1
2017-Nov-03 18:30N 34°39' E 135°21'0 0.0
2017-Nov-03 18:00N 34°39' E 135°21'0 0.0
2017-Nov-03 17:25N 34°39' E 135°21'0 0.0
2017-Nov-03 16:56N 34°39' E 135°21'0 0.0
2017-Nov-03 16:30N 34°39' E 135°21'0 0.0
2017-Nov-03 16:00N 34°39' E 135°21'0 0.0
2017-Nov-03 15:30N 34°39' E 135°21'0 0.0
2017-Nov-03 15:01N 34°39' E 135°21'0 0.0
2017-Nov-03 14:30N 34°39' E 135°21'0 0.0
2017-Nov-03 14:00N 34°39' E 135°21'0 0.0
2017-Nov-03 13:30N 34°39' E 135°21'0 0.0
2017-Nov-03 13:00N 34°39' E 135°21'0 0.0
2017-Nov-03 12:30N 34°39' E 135°21'0 0.0
2017-Nov-03 12:00N 34°39' E 135°21'0 0.1
2017-Nov-03 11:29N 34°39' E 135°21'0 0.0
2017-Nov-03 11:00N 34°39' E 135°21'0 0.0
2017-Nov-03 10:30N 34°39' E 135°21'0 0.0
2017-Nov-03 10:00N 34°39' E 135°21'0 0.0
2017-Nov-03 09:30N 34°39' E 135°21'0 0.0
2017-Nov-03 09:00N 34°39' E 135°21'0 0.0
2017-Nov-03 08:31N 34°39' E 135°21'0 0.0
2017-Nov-03 08:00N 34°39' E 135°21'0 0.0
2017-Nov-03 07:29N 34°39' E 135°21'0 0.0
2017-Nov-03 07:01N 34°39' E 135°21'0 0.0
2017-Nov-03 06:30N 34°39' E 135°21'0 0.1
2017-Nov-03 06:00N 34°39' E 135°21'0 0.0
2017-Nov-03 05:30N 34°39' E 135°21'0 0.0
2017-Nov-03 04:57N 34°39' E 135°21'0 0.0
2017-Nov-03 04:30N 34°39' E 135°21'0 0.0
2017-Nov-03 03:59N 34°39' E 135°21'0 0.0
2017-Nov-03 03:30N 34°39' E 135°21'0 0.0
2017-Nov-03 03:01N 34°39' E 135°21'0 0.0
2017-Nov-03 02:26N 34°39' E 135°21'0 0.0
2017-Nov-03 01:55N 34°39' E 135°21'1 2.8
2017-Nov-03 01:30N 34°38' E 135°21'611.6
2017-Nov-03 00:59N 34°33' E 135°17'611.5
2017-Nov-03 00:29N 34°28' E 135°13'611.4
2017-Nov-02 23:57N 34°24' E 135°08'612.0
2017-Nov-02 23:28N 34°19' E 135°04'511.7
2017-Nov-02 23:00N 34°13' E 135°03'611.8
2017-Nov-02 22:30N 34°08' E 135°03'  

Dump ship's entire track history